createdAt,value
2022-12-11T00:01:14.283Z,4.88
2022-12-11T00:03:43.149Z,5.50
2022-12-11T00:06:15.016Z,5.25
2022-12-11T00:08:44.136Z,4.80
2022-12-11T00:11:14.225Z,5.18
2022-12-11T00:13:43.006Z,6.38
2022-12-11T00:16:12.394Z,4.78
2022-12-11T00:18:41.151Z,4.93
2022-12-11T00:21:14.595Z,5.78
2022-12-11T00:23:43.590Z,4.65
2022-12-11T00:26:15.726Z,4.53
2022-12-11T00:28:45.239Z,4.95
2022-12-11T00:31:15.977Z,4.78
2022-12-11T00:33:45.026Z,5.00
2022-12-11T00:36:17.130Z,4.82
2022-12-11T00:38:45.689Z,4.07
2022-12-11T00:41:14.153Z,4.65
2022-12-11T00:43:42.919Z,5.30
2022-12-11T00:46:11.579Z,4.65
2022-12-11T00:48:40.407Z,5.00
2022-12-11T00:51:09.018Z,5.90
2022-12-11T00:53:39.084Z,4.60
2022-12-11T00:56:12.524Z,4.65
2022-12-11T00:58:41.101Z,5.28
2022-12-11T01:01:11.234Z,5.10
2022-12-11T01:03:39.852Z,4.60
2022-12-11T01:06:09.587Z,5.15
2022-12-11T01:08:39.439Z,4.80
2022-12-11T01:11:10.068Z,4.15
2022-12-11T01:13:39.584Z,4.70
2022-12-11T01:16:09.837Z,4.88
2022-12-11T01:18:38.719Z,5.10
2022-12-11T01:21:08.151Z,5.90
2022-12-11T01:23:37.227Z,4.85
2022-12-11T01:26:08.850Z,5.60
2022-12-11T01:28:37.698Z,4.15
2022-12-11T01:31:09.938Z,4.65
2022-12-11T01:33:38.783Z,4.75
2022-12-11T01:36:11.492Z,4.90
2022-12-11T01:38:40.029Z,4.05
2022-12-11T01:41:10.763Z,4.50
2022-12-11T01:43:57.711Z,4.35
2022-12-11T01:46:26.973Z,4.85
2022-12-11T01:48:56.765Z,5.20
2022-12-11T01:51:25.675Z,4.72
2022-12-11T01:53:59.976Z,4.50
2022-12-11T01:56:33.367Z,4.82
2022-12-11T01:59:07.304Z,4.05
2022-12-11T02:01:40.626Z,3.95
2022-12-11T02:04:10.938Z,4.45
2022-12-11T02:06:41.394Z,3.63
2022-12-11T02:09:13.073Z,3.53
2022-12-11T02:11:53.856Z,4.25
2022-12-11T02:14:30.523Z,4.63
2022-12-11T02:17:05.647Z,4.45
2022-12-11T02:22:22.871Z,5.10
2022-12-11T02:25:04.371Z,3.95
2022-12-11T02:27:39.086Z,4.18
2022-12-11T02:30:11.399Z,4.63
2022-12-11T02:32:44.347Z,3.38
2022-12-11T02:35:18.996Z,4.10
2022-12-11T02:37:50.013Z,4.70
2022-12-11T02:40:22.612Z,4.85
2022-12-11T02:42:53.168Z,3.50
2022-12-11T02:45:25.295Z,4.25
2022-12-11T02:47:54.043Z,3.65
2022-12-11T02:50:24.413Z,4.38
2022-12-11T02:52:56.793Z,4.82
2022-12-11T02:55:28.251Z,3.65
2022-12-11T02:58:03.290Z,3.90
2022-12-11T03:00:33.342Z,3.47
2022-12-11T03:03:03.221Z,3.70
2022-12-11T03:05:32.453Z,4.10
2022-12-11T03:08:00.954Z,3.30
2022-12-11T03:10:29.424Z,3.75
2022-12-11T03:13:00.241Z,4.63
2022-12-11T03:15:35.927Z,3.85
2022-12-11T03:18:10.399Z,3.47
2022-12-11T03:20:42.320Z,3.42
2022-12-11T03:23:21.063Z,3.97
2022-12-11T03:25:55.316Z,3.08
2022-12-11T03:28:30.339Z,3.40
2022-12-11T03:31:05.444Z,4.45
2022-12-11T03:33:37.389Z,3.40
2022-12-11T03:36:10.886Z,2.88
2022-12-11T03:38:45.374Z,3.35
2022-12-11T03:41:18.060Z,3.33
2022-12-11T03:43:47.746Z,3.45
2022-12-11T03:46:19.268Z,3.95
2022-12-11T03:48:50.626Z,3.13
2022-12-11T03:51:19.416Z,3.28
2022-12-11T03:53:48.816Z,2.97
2022-12-11T03:56:20.556Z,3.20
2022-12-11T03:58:49.016Z,3.38
2022-12-11T04:01:19.302Z,4.18
2022-12-11T04:03:47.737Z,3.55
2022-12-11T04:06:16.179Z,4.05
2022-12-11T04:08:44.587Z,3.70
2022-12-11T04:11:30.459Z,3.67
2022-12-11T04:14:16.460Z,2.22
2022-12-11T04:16:46.267Z,3.85
2022-12-11T04:19:32.432Z,3.40
2022-12-11T04:22:18.691Z,3.55
2022-12-11T04:27:38.168Z,3.65
2022-12-11T04:30:11.468Z,3.67
2022-12-11T04:32:41.369Z,2.88
2022-12-11T04:35:11.141Z,3.22
2022-12-11T04:37:40.231Z,3.88
2022-12-11T04:40:11.654Z,2.85
2022-12-11T04:42:40.056Z,3.28
2022-12-11T04:45:10.159Z,3.75
2022-12-11T04:47:41.985Z,4.28
2022-12-11T04:50:12.818Z,3.63
2022-12-11T04:52:41.418Z,3.58
2022-12-11T04:55:11.249Z,3.10
2022-12-11T04:57:39.894Z,2.70
2022-12-11T05:00:11.947Z,3.05
2022-12-11T05:02:43.327Z,3.50
2022-12-11T05:05:13.052Z,3.17
2022-12-11T05:07:42.006Z,3.00
2022-12-11T05:10:11.248Z,3.33
2022-12-11T05:12:39.944Z,3.25
2022-12-11T05:15:09.785Z,3.17
2022-12-11T05:17:38.880Z,3.03
2022-12-11T05:20:10.470Z,3.15
2022-12-11T05:22:39.460Z,2.85
2022-12-11T05:25:08.980Z,2.63
2022-12-11T05:27:37.786Z,3.53
2022-12-11T05:30:07.478Z,3.97
2022-12-11T05:32:35.867Z,3.33
2022-12-11T05:35:04.678Z,3.80
2022-12-11T05:37:35.516Z,3.72
2022-12-11T05:40:06.159Z,4.40
2022-12-11T05:42:34.674Z,3.83
2022-12-11T05:45:03.438Z,3.25
2022-12-11T05:47:32.468Z,3.88
2022-12-11T05:50:00.851Z,4.13
2022-12-11T05:52:29.283Z,3.35
2022-12-11T05:54:59.093Z,4.05
2022-12-11T05:57:27.479Z,3.30
2022-12-11T05:59:55.957Z,3.50
2022-12-11T06:02:24.522Z,2.55
2022-12-11T06:04:52.974Z,3.58
2022-12-11T06:07:21.417Z,3.72
2022-12-11T06:09:49.791Z,3.30
2022-12-11T06:12:19.746Z,3.00
2022-12-11T06:14:48.155Z,3.35
2022-12-11T06:17:16.606Z,2.35
2022-12-11T06:19:44.969Z,3.28
2022-12-11T06:22:13.361Z,3.10
2022-12-11T06:24:41.776Z,3.42
2022-12-11T06:27:10.226Z,2.92
2022-12-11T06:29:40.040Z,2.70
2022-12-11T06:32:08.504Z,2.95
2022-12-11T06:34:36.932Z,2.95
2022-12-11T06:37:05.464Z,2.63
2022-12-11T06:39:33.939Z,3.13
2022-12-11T06:42:02.398Z,2.63
2022-12-11T06:44:30.865Z,2.38
2022-12-11T06:47:00.711Z,3.25
2022-12-11T06:49:29.224Z,3.38
2022-12-11T06:51:58.525Z,2.70
2022-12-11T06:54:27.735Z,3.30
2022-12-11T06:56:56.231Z,2.53
2022-12-11T06:59:24.819Z,3.58
2022-12-11T07:01:53.266Z,2.92
2022-12-11T07:04:24.639Z,3.55
2022-12-11T07:06:53.348Z,2.78
2022-12-11T07:09:22.831Z,3.28
2022-12-11T07:11:51.640Z,2.85
2022-12-11T07:14:20.317Z,2.83
2022-12-11T07:16:48.818Z,2.70
2022-12-11T07:19:17.556Z,2.78
2022-12-11T07:21:47.400Z,2.47
2022-12-11T07:24:15.884Z,2.65
2022-12-11T07:26:44.344Z,2.50
2022-12-11T07:29:12.769Z,3.20
2022-12-11T07:31:41.241Z,2.75
2022-12-11T07:34:12.679Z,3.22
2022-12-11T07:36:41.175Z,4.97
2022-12-11T07:39:12.531Z,5.45
2022-12-11T07:41:41.069Z,5.85
2022-12-11T07:44:12.647Z,4.65
2022-12-11T07:46:41.351Z,3.25
2022-12-11T07:49:09.759Z,3.42
2022-12-11T07:51:39.393Z,4.95
2022-12-11T07:54:11.967Z,3.88
2022-12-11T07:56:43.899Z,3.30
2022-12-11T07:59:12.731Z,3.75
2022-12-11T08:01:42.112Z,4.03
2022-12-11T08:04:15.406Z,3.40
2022-12-11T08:06:44.195Z,3.75
2022-12-11T08:09:21.074Z,3.58
2022-12-11T08:11:51.779Z,3.25
2022-12-11T08:14:20.739Z,4.65
2022-12-11T08:16:49.535Z,3.20
2022-12-11T08:19:18.127Z,2.60
2022-12-11T08:21:46.813Z,2.85
2022-12-11T08:24:16.434Z,3.45
2022-12-11T08:26:46.767Z,4.68
2022-12-11T08:29:16.538Z,3.03
2022-12-11T08:31:45.263Z,5.47
2022-12-11T08:34:14.146Z,3.55
2022-12-11T08:36:43.839Z,3.60
2022-12-11T08:39:12.325Z,2.90
2022-12-11T08:41:40.782Z,3.65
2022-12-11T08:44:16.286Z,3.80
2022-12-11T08:46:46.859Z,3.10
2022-12-11T08:49:15.305Z,3.90
2022-12-11T08:51:43.714Z,2.65
2022-12-11T08:54:12.340Z,3.17
2022-12-11T08:56:40.900Z,3.90
2022-12-11T08:59:09.358Z,2.97
2022-12-11T09:01:37.854Z,3.45
2022-12-11T09:04:07.727Z,3.25
2022-12-11T09:06:36.163Z,3.78
2022-12-11T09:09:05.127Z,3.95
2022-12-11T09:11:36.803Z,3.50
2022-12-11T09:14:07.831Z,3.38
2022-12-11T09:16:40.134Z,3.25
2022-12-11T09:19:13.644Z,3.67
2022-12-11T09:21:43.548Z,3.35
2022-12-11T09:24:13.493Z,4.20
2022-12-11T09:26:42.617Z,3.00
2022-12-11T09:29:12.947Z,4.20
2022-12-11T09:31:41.452Z,3.00
2022-12-11T09:34:13.341Z,4.10
2022-12-11T09:36:44.042Z,3.92
2022-12-11T09:39:14.132Z,3.30
2022-12-11T09:41:52.871Z,3.80
2022-12-11T09:44:31.687Z,2.50
2022-12-11T09:47:00.597Z,3.05
2022-12-11T09:49:36.280Z,3.65
2022-12-11T09:52:13.642Z,3.13
2022-12-11T09:54:48.811Z,3.00
2022-12-11T09:57:33.239Z,2.95
2022-12-11T10:00:11.330Z,4.05
2022-12-11T10:03:03.663Z,4.13
2022-12-11T10:05:43.761Z,3.28
2022-12-11T10:10:52.594Z,4.22
2022-12-11T10:13:29.140Z,3.50
2022-12-11T10:16:05.047Z,3.53
2022-12-11T10:18:34.871Z,3.20
2022-12-11T10:21:05.540Z,3.20
2022-12-11T10:23:39.667Z,3.58
2022-12-11T10:26:12.142Z,3.88
2022-12-11T10:28:40.823Z,3.90
2022-12-11T10:31:17.002Z,4.53
2022-12-11T10:33:56.068Z,3.15
2022-12-11T10:36:32.465Z,3.15
2022-12-11T10:39:01.187Z,3.80
2022-12-11T10:41:39.078Z,5.50
2022-12-11T10:44:18.680Z,5.18
2022-12-11T10:46:48.911Z,4.68
2022-12-11T10:49:26.102Z,3.92
2022-12-11T10:51:57.088Z,4.07
2022-12-11T10:54:33.002Z,5.53
2022-12-11T10:57:04.170Z,3.58
2022-12-11T10:59:37.519Z,4.65
2022-12-11T11:02:08.610Z,4.90
2022-12-11T11:04:38.847Z,5.20
2022-12-11T11:07:15.373Z,4.80
2022-12-11T11:09:44.367Z,4.40
2022-12-11T11:12:21.506Z,6.10
2022-12-11T11:15:00.656Z,4.00
2022-12-11T11:17:33.830Z,8.35
2022-12-11T11:20:14.193Z,5.03
2022-12-11T11:22:46.728Z,6.57
2022-12-11T11:25:20.854Z,5.38
2022-12-11T11:27:52.405Z,15.02
2022-12-11T11:30:23.930Z,3.53
2022-12-11T11:32:55.345Z,3.80
2022-12-11T11:35:26.542Z,4.13
2022-12-11T11:38:03.350Z,3.30
2022-12-11T11:40:35.050Z,3.85
2022-12-11T11:43:14.049Z,3.78
2022-12-11T11:45:47.710Z,3.20
2022-12-11T11:48:29.576Z,3.08
2022-12-11T11:50:59.332Z,3.55
2022-12-11T11:53:32.912Z,4.75
2022-12-11T11:56:07.013Z,4.53
2022-12-11T12:01:15.689Z,2.75
2022-12-11T12:03:44.743Z,3.90
2022-12-11T12:06:26.824Z,3.42
2022-12-11T12:09:13.031Z,2.97
2022-12-11T12:11:47.531Z,3.42
2022-12-11T12:14:51.193Z,3.17
2022-12-11T12:17:20.934Z,3.90
2022-12-11T12:19:55.970Z,3.50
2022-12-11T12:22:43.500Z,2.78
2022-12-11T12:25:23.195Z,3.40
2022-12-11T12:27:59.431Z,2.70
2022-12-11T12:30:37.870Z,2.95
2022-12-11T12:33:23.810Z,3.13
2022-12-11T12:36:06.553Z,2.60
2022-12-11T12:38:48.501Z,3.75
2022-12-11T12:41:23.386Z,3.70
2022-12-11T12:44:04.642Z,3.47
2022-12-11T12:46:45.893Z,2.92
2022-12-11T12:49:21.406Z,4.18
2022-12-11T12:51:52.341Z,4.72
2022-12-11T12:54:22.282Z,6.03
2022-12-11T12:56:52.323Z,4.28
2022-12-11T12:59:23.195Z,4.40
2022-12-11T13:01:56.907Z,3.45
2022-12-11T13:04:55.888Z,6.97
2022-12-11T13:07:29.838Z,7.15
2022-12-11T13:10:06.529Z,4.15
2022-12-11T13:12:43.435Z,3.38
2022-12-11T13:15:30.261Z,6.07
2022-12-11T13:17:59.683Z,8.65
2022-12-11T13:20:30.335Z,6.45
2022-12-11T13:23:19.029Z,5.60
2022-12-11T13:25:51.461Z,6.57
2022-12-11T13:28:28.327Z,6.22
2022-12-11T13:31:31.145Z,6.30
2022-12-11T13:34:10.267Z,3.95
2022-12-11T13:36:41.496Z,4.50
2022-12-11T13:39:19.059Z,4.85
2022-12-11T13:41:49.702Z,4.25
2022-12-11T13:44:25.627Z,5.40
2022-12-11T13:46:57.299Z,4.90
2022-12-11T13:49:28.945Z,5.65
2022-12-11T13:51:59.426Z,4.95
2022-12-11T13:54:31.613Z,8.25
2022-12-11T13:57:03.194Z,5.80
2022-12-11T13:59:35.566Z,9.23
2022-12-11T14:02:16.045Z,5.30
2022-12-11T14:04:45.162Z,6.28
2022-12-11T14:07:13.928Z,4.63
2022-12-11T14:09:45.416Z,7.88
2022-12-11T14:12:19.115Z,5.00
2022-12-11T14:14:52.554Z,6.03
2022-12-11T14:17:25.801Z,7.20
2022-12-11T14:19:55.593Z,6.95
2022-12-11T14:22:26.007Z,6.20
2022-12-11T14:24:56.521Z,6.88
2022-12-11T14:27:27.285Z,7.63
2022-12-11T14:29:57.559Z,5.80
2022-12-11T14:32:33.097Z,7.47
2022-12-11T14:35:05.386Z,5.80
2022-12-11T14:37:35.988Z,3.78
2022-12-11T14:40:10.435Z,7.72
2022-12-11T14:42:41.965Z,6.72
2022-12-11T14:45:20.807Z,5.82
2022-12-11T14:47:50.201Z,4.93
2022-12-11T14:50:22.286Z,4.72
2022-12-11T14:52:54.370Z,6.82
2022-12-11T14:55:27.042Z,5.78
2022-12-11T14:57:59.893Z,7.28
2022-12-11T15:00:32.137Z,6.63
2022-12-11T15:03:03.141Z,8.05
2022-12-11T15:05:38.835Z,6.50
2022-12-11T15:08:24.727Z,5.88
2022-12-11T15:11:04.042Z,8.73
2022-12-11T15:13:33.967Z,7.40
2022-12-11T15:16:05.272Z,6.35
2022-12-11T15:18:37.075Z,12.15
2022-12-11T15:21:09.485Z,9.07
2022-12-11T15:23:50.400Z,7.22
2022-12-11T15:26:19.848Z,8.45
2022-12-11T15:28:48.659Z,6.05
2022-12-11T15:31:29.777Z,8.23
2022-12-11T15:33:58.330Z,6.93
2022-12-11T15:36:34.223Z,10.25
2022-12-11T15:39:03.930Z,8.10
2022-12-11T15:41:34.529Z,8.40
2022-12-11T15:44:04.936Z,7.82
2022-12-11T15:46:38.147Z,6.32
2022-12-11T15:49:12.208Z,8.18
2022-12-11T15:54:12.134Z,6.22
2022-12-11T15:56:40.889Z,5.60
2022-12-11T15:59:11.551Z,7.00
2022-12-11T16:01:41.408Z,7.93
2022-12-11T16:04:09.874Z,7.43
2022-12-11T16:06:38.360Z,9.70
2022-12-11T16:09:06.840Z,7.32
2022-12-11T16:11:35.263Z,5.47
2022-12-11T16:14:04.490Z,10.05
2022-12-11T16:16:33.411Z,7.55
2022-12-11T16:19:03.329Z,6.18
2022-12-11T16:21:31.810Z,7.80
2022-12-11T16:24:00.177Z,7.30
2022-12-11T16:26:28.985Z,7.45
2022-12-11T16:29:00.552Z,5.65
2022-12-11T16:31:29.869Z,6.43
2022-12-11T16:33:58.679Z,6.72
2022-12-11T16:36:28.665Z,7.43
2022-12-11T16:38:57.085Z,7.65
2022-12-11T16:41:27.849Z,6.32
2022-12-11T16:43:56.271Z,6.47
2022-12-11T16:46:25.966Z,6.18
2022-12-11T16:48:54.621Z,7.78
2022-12-11T16:51:23.143Z,6.65
2022-12-11T16:53:52.914Z,6.38
2022-12-11T16:56:21.391Z,5.40
2022-12-11T16:58:49.847Z,6.90
2022-12-11T17:01:18.399Z,7.25
2022-12-11T17:03:46.998Z,7.55
2022-12-11T17:06:18.255Z,6.82
2022-12-11T17:08:46.943Z,8.13
2022-12-11T17:11:19.618Z,7.88
2022-12-11T17:13:48.682Z,7.45
2022-12-11T17:16:18.014Z,6.75
2022-12-11T17:18:46.464Z,8.80
2022-12-11T17:21:17.605Z,8.65
2022-12-11T17:23:46.563Z,7.95
2022-12-11T17:26:16.637Z,6.88
2022-12-11T17:28:45.569Z,6.20
2022-12-11T17:31:16.721Z,6.70
2022-12-11T17:33:45.760Z,10.88
2022-12-11T17:36:16.418Z,11.23
2022-12-11T17:38:45.393Z,7.60
2022-12-11T17:41:20.497Z,8.48
2022-12-11T17:43:49.746Z,12.73
2022-12-11T17:46:19.497Z,13.70
2022-12-11T17:48:48.585Z,11.95
2022-12-11T17:51:21.844Z,14.13
2022-12-11T17:53:50.670Z,13.32
2022-12-11T17:56:20.506Z,13.75
2022-12-11T17:58:49.017Z,27.25
2022-12-11T18:01:18.031Z,23.38
2022-12-11T18:03:46.846Z,22.33
2022-12-11T18:06:17.134Z,30.17
2022-12-11T18:08:46.202Z,36.80
2022-12-11T18:11:17.350Z,44.00
2022-12-11T18:13:47.219Z,46.03
2022-12-11T18:16:17.881Z,49.17
2022-12-11T18:18:47.024Z,51.03
2022-12-11T18:21:17.831Z,54.95
2022-12-11T18:23:46.692Z,53.78
2022-12-11T18:26:15.491Z,50.35
2022-12-11T18:28:44.987Z,53.70
2022-12-11T18:31:15.602Z,60.42
2022-12-11T18:33:45.436Z,57.40
2022-12-11T18:36:15.800Z,55.70
2022-12-11T18:38:45.406Z,56.03
2022-12-11T18:41:14.459Z,54.08
2022-12-11T18:43:43.525Z,67.05
2022-12-11T18:46:15.046Z,59.72
2022-12-11T18:48:44.387Z,59.70
2022-12-11T18:51:14.986Z,52.38
2022-12-11T18:53:45.245Z,53.60
2022-12-11T18:56:16.575Z,62.10
2022-12-11T18:58:45.758Z,66.78
2022-12-11T19:01:19.082Z,65.75
2022-12-11T19:03:47.912Z,64.15
2022-12-11T19:06:18.452Z,70.07
2022-12-11T19:08:47.197Z,68.18
2022-12-11T19:11:16.862Z,48.97
2022-12-11T19:13:46.568Z,55.33
2022-12-11T19:16:22.100Z,49.22
2022-12-11T19:18:51.032Z,47.00
2022-12-11T19:21:19.975Z,45.45
2022-12-11T19:23:49.320Z,44.28
2022-12-11T19:26:20.139Z,66.55
2022-12-11T19:28:50.515Z,67.82
2022-12-11T19:31:22.376Z,63.53
2022-12-11T19:33:51.516Z,67.68
2022-12-11T19:36:21.658Z,62.90
2022-12-11T19:38:50.691Z,72.20
2022-12-11T19:41:21.540Z,64.45
2022-12-11T19:43:50.522Z,61.63
2022-12-11T19:46:21.415Z,68.55
2022-12-11T19:48:50.581Z,65.50
2022-12-11T19:51:21.044Z,66.50
2022-12-11T19:53:50.483Z,61.38
2022-12-11T19:56:20.747Z,60.90
2022-12-11T19:58:49.735Z,67.40
2022-12-11T20:01:25.674Z,69.25
2022-12-11T20:03:55.306Z,64.90
2022-12-11T20:06:24.565Z,62.15
2022-12-11T20:08:53.166Z,70.97
2022-12-11T20:11:21.746Z,66.60
2022-12-11T20:13:50.632Z,63.83
2022-12-11T20:16:39.124Z,63.00
2022-12-11T20:19:10.562Z,64.18
2022-12-11T20:21:39.002Z,60.92
2022-12-11T20:24:08.016Z,63.63
2022-12-11T20:26:38.082Z,64.45
2022-12-11T20:29:08.358Z,57.10
2022-12-11T20:31:37.683Z,56.20
2022-12-11T20:34:07.494Z,56.95
2022-12-11T20:36:37.276Z,56.90
2022-12-11T20:39:06.032Z,56.17
2022-12-11T20:41:34.480Z,53.05
2022-12-11T20:44:02.918Z,54.92
2022-12-11T20:46:31.510Z,55.42
2022-12-11T20:48:59.939Z,55.00
2022-12-11T20:51:29.086Z,50.25
2022-12-11T20:53:59.798Z,48.65
2022-12-11T20:56:30.262Z,51.55
2022-12-11T20:59:00.507Z,48.95
2022-12-11T21:01:31.755Z,49.67
2022-12-11T21:04:00.628Z,47.85
2022-12-11T21:06:31.654Z,46.10
2022-12-11T21:09:03.219Z,45.85
2022-12-11T21:11:32.063Z,47.67
2022-12-11T21:14:00.949Z,45.92
2022-12-11T21:16:29.666Z,47.95
2022-12-11T21:18:59.126Z,44.50
2022-12-11T21:21:27.823Z,43.03
2022-12-11T21:23:56.251Z,44.00
2022-12-11T21:26:26.144Z,47.33
2022-12-11T21:28:54.859Z,40.72
2022-12-11T21:31:23.361Z,43.60
2022-12-11T21:33:52.073Z,44.03
2022-12-11T21:36:20.500Z,43.97
2022-12-11T21:38:49.611Z,40.42
2022-12-11T21:41:20.794Z,41.75
2022-12-11T21:44:56.523Z,41.28
2022-12-11T21:46:41.604Z,38.13
2022-12-11T21:49:10.063Z,39.60
2022-12-11T21:51:46.740Z,38.95
2022-12-11T21:54:18.770Z,44.58
2022-12-11T21:56:48.095Z,40.28
2022-12-11T21:59:17.925Z,38.88
2022-12-11T22:01:47.003Z,41.40
2022-12-11T22:04:16.622Z,39.65
2022-12-11T22:06:47.240Z,41.50
2022-12-11T22:09:17.720Z,39.45
2022-12-11T22:11:47.279Z,38.20
2022-12-11T22:14:18.658Z,36.22
2022-12-11T22:16:47.611Z,37.80
2022-12-11T22:19:16.143Z,41.08
2022-12-11T22:21:44.538Z,39.10
2022-12-11T22:24:14.079Z,34.58
2022-12-11T22:26:42.607Z,36.38
2022-12-11T22:29:11.146Z,36.85
2022-12-11T22:31:40.953Z,36.95
2022-12-11T22:34:09.634Z,34.70
2022-12-11T22:36:38.245Z,34.60
2022-12-11T22:39:06.950Z,35.13
2022-12-11T22:41:38.307Z,34.47
2022-12-11T22:44:06.872Z,36.50
2022-12-11T22:46:35.404Z,36.17
2022-12-11T22:49:05.290Z,35.35
2022-12-11T22:51:33.891Z,33.58
2022-12-11T22:54:02.416Z,33.13
2022-12-11T22:56:30.981Z,33.25
2022-12-11T22:58:59.561Z,32.38
2022-12-11T23:01:29.119Z,35.22
2022-12-11T23:03:57.572Z,32.85
2022-12-11T23:06:27.404Z,33.97
2022-12-11T23:08:59.060Z,31.85
2022-12-11T23:11:29.980Z,33.33
2022-12-11T23:13:58.826Z,31.13
2022-12-11T23:16:28.668Z,31.95
2022-12-11T23:18:58.136Z,30.40
2022-12-11T23:21:28.547Z,31.95
2022-12-11T23:23:58.383Z,29.10
2022-12-11T23:26:29.239Z,31.13
2022-12-11T23:28:59.212Z,34.08
2022-12-11T23:31:28.478Z,28.77
2022-12-11T23:33:56.964Z,28.48
2022-12-11T23:36:26.427Z,29.15
2022-12-11T23:38:56.301Z,29.40
2022-12-11T23:41:24.814Z,28.85
2022-12-11T23:43:53.246Z,27.45
2022-12-11T23:46:23.822Z,28.05
2022-12-11T23:48:53.483Z,24.13
2022-12-11T23:51:23.695Z,27.45
2022-12-11T23:53:53.150Z,26.92
2022-12-11T23:56:25.433Z,26.38
2022-12-11T23:58:54.923Z,26.77
